SOHO CELIAS Proton Monitor
Solar Wind Parameters for Carrington Rotation 2079 (hour averages)


Listed Parameters:

Measurement time (Year, Month, Day of Month, Day of Year, Hour, Minute, Second)
Proton speed [km/sec]
Proton density [protons per cubic centimeter]
Most probable proton thermal speed [km/sec]
Arrival direction [degrees from north-south, with + meaning FROM the south).
(SPEED=-1 means NOT AVAILABLE)

SOHO spacecraft coordinates: based on SOHO PRE orbit files
GSE X, Y, Z [Earth Radii] 1 RE == 6378 km
Heliocentric Range [106 km],
Heliographic Latitude and Longitude [deg].

FORMAT=(1X,I2,1X,I3,1X,I2,1X,I2,1X,I2,F7.1,3F7.2,3X,3F7.1,F7.1,F7.2,F8.2)



                              CELIAS/MTOF/PM DATA                      SOHO ORBIT DATA              
 InSitu_Start__Time       [km/s]  [cm-3] [km/s]  [deg]      [Re]   [Re]   [Re]  [Mkm]  [deg]  [deg]
 YY MON DY DOY:HH:MM:SS   SPEED     Np     Vth    N/S      GSE_X  GSE_Y  GSE_Z  RANGE  HGLAT  HGLONG
 09 JAN 13  13:23:00:00     280    4.1      16   -0.7      240.4   79.3  -13.7  145.6   -4.5   359.2
 09 JAN 14  14:00:00:00     332    9.3      19   -6.5      240.5   79.2  -13.8  145.6   -4.5   358.7
 09 JAN 14  14:01:00:00     333    4.3      19   -3.3      240.5   79.1  -13.8  145.6   -4.5   358.1
 09 JAN 14  14:02:00:00     330    3.6      19   -1.2      240.6   79.0  -13.8  145.6   -4.5   357.6
 09 JAN 14  14:03:00:00     324    2.8      19   -1.6      240.6   78.9  -13.8  145.6   -4.5   357.0
 09 JAN 14  14:04:00:00     327    4.6      19    0.3      240.7   78.8  -13.8  145.6   -4.5   356.5
 09 JAN 14  14:05:00:00     327    3.5      20   -2.3      240.7   78.7  -13.9  145.6   -4.5   355.9
 09 JAN 14  14:06:00:00     321    5.9      19   -6.0      240.8   78.6  -13.9  145.6   -4.5   355.4
 09 JAN 14  14:07:00:00     311    7.3      19   -4.6      240.9   78.5  -13.9  145.6   -4.5   354.8
 09 JAN 14  14:08:00:00     328    4.4      20   -3.3      240.9   78.4  -13.9  145.6   -4.5   354.3
 09 JAN 14  14:09:00:00     339    3.0      22    1.3      241.0   78.3  -13.9  145.6   -4.5   353.7
 09 JAN 14  14:10:00:00     336    3.7      22    0.2      241.0   78.2  -14.0  145.6   -4.5   353.2
 09 JAN 14  14:11:00:00     342    5.0      22    2.5      241.1   78.1  -14.0  145.6   -4.5   352.6
 09 JAN 14  14:12:00:00     346    6.2      16    1.7      241.1   78.0  -14.0  145.6   -4.5   352.1
 09 JAN 14  14:13:00:00     347    4.0      17    1.3      241.2   77.9  -14.0  145.6   -4.5   351.5
 09 JAN 14  14:14:00:00     349    3.6      17    0.4      241.2   77.8  -14.0  145.6   -4.5   351.0
 09 JAN 14  14:15:00:00     349    2.4      18    0.2      241.3   77.7  -14.1  145.6   -4.5   350.4
 09 JAN 14  14:16:00:00     348    2.4      18    1.4      241.3   77.6  -14.1  145.6   -4.6   349.9
 09 JAN 14  14:17:00:00     349    1.6      20    1.0      241.4   77.5  -14.1  145.6   -4.6   349.3
 09 JAN 14  14:18:00:00     352    1.3      20    0.0      241.5   77.4  -14.1  145.6   -4.6   348.8
 09 JAN 14  14:19:00:00     350    2.2      19   -0.6      241.5   77.3  -14.1  145.6   -4.6   348.2
 09 JAN 14  14:20:00:00     347    2.1      19   -1.6      241.6   77.2  -14.2  145.6   -4.6   347.7
 09 JAN 14  14:21:00:00     344    3.0      17   -5.0      241.6   77.0  -14.2  145.6   -4.6   347.1
 09 JAN 14  14:22:00:00     344    3.7      18   -3.5      241.7   76.9  -14.2  145.6   -4.6   346.6
 09 JAN 14  14:23:00:00     349    3.5      19    0.6      241.7   76.8  -14.2  145.6   -4.6   346.0
 09 JAN 15  15:00:00:00     349    4.3      18   -0.2      241.8   76.7  -14.2  145.6   -4.6   345.5
 09 JAN 15  15:01:00:00     348    5.3      18    1.3      241.8   76.6  -14.3  145.6   -4.6   344.9
 09 JAN 15  15:02:00:00     347    5.2      19    1.2      241.9   76.5  -14.3  145.6   -4.6   344.4
 09 JAN 15  15:03:00:00     339    4.9      20   -2.6      241.9   76.4  -14.3  145.6   -4.6   343.8
 09 JAN 15  15:04:00:00     336    5.7      20   -3.4      242.0   76.3  -14.3  145.6   -4.6   343.3
 09 JAN 15  15:05:00:00     337    4.8      21    0.4      242.0   76.2  -14.3  145.6   -4.6   342.7
 09 JAN 15  15:06:00:00     339    5.0      21   -0.3      242.1   76.1  -14.3  145.6   -4.6   342.2
 09 JAN 15  15:07:00:00     343    5.6      21   -2.2      242.1   76.0  -14.4  145.6   -4.6   341.6
 09 JAN 15  15:08:00:00     341    6.6      20   -4.3      242.2   75.9  -14.4  145.6   -4.6   341.1
 09 JAN 15  15:09:00:00     330    4.4      20   -4.0      242.3   75.8  -14.4  145.6   -4.6   340.5
 09 JAN 15  15:10:00:00     343    4.2      19   -0.7      242.3   75.7  -14.4  145.6   -4.6   340.0
 09 JAN 15  15:11:00:00     344    3.4      18    0.9      242.4   75.6  -14.4  145.6   -4.6   339.4
 09 JAN 15  15:12:00:00     347    4.4      19    1.4      242.4   75.5  -14.5  145.6   -4.6   338.9
 09 JAN 15  15:13:00:00     353    6.4      22    0.9      242.5   75.4  -14.5  145.6   -4.6   338.3
 09 JAN 15  15:14:00:00     344   10.0      22    1.2      242.5   75.3  -14.5  145.6   -4.6   337.8
 09 JAN 15  15:15:00:00     349    8.5      21   -2.9      242.6   75.2  -14.5  145.6   -4.7   337.2
 09 JAN 15  15:16:00:00     339    4.4      23   -1.5      242.6   75.1  -14.5  145.6   -4.7   336.7
 09 JAN 15  15:17:00:00     338    3.4      22   -2.5      242.7   75.0  -14.6  145.6   -4.7   336.1
 09 JAN 15  15:18:00:00     348    7.5      21    0.3      242.7   74.8  -14.6  145.6   -4.7   335.6
 09 JAN 15  15:19:00:00     357    4.7      21    0.9      242.8   74.7  -14.6  145.6   -4.7   335.0
 09 JAN 15  15:20:00:00     365    3.5      21    0.5      242.8   74.6  -14.6  145.6   -4.7   334.5
 09 JAN 15  15:21:00:00     419    3.0      24   -0.4      242.9   74.5  -14.6  145.6   -4.7   333.9
 09 JAN 15  15:22:00:00     420    2.7      25   -0.9      243.0   74.4  -14.6  145.6   -4.7   333.4
 09 JAN 15  15:23:00:00     418    2.9      26    0.0      243.0   74.3  -14.7  145.6   -4.7   332.8
 09 JAN 16  16:00:00:00     421    3.0      20   -1.1      243.1   74.2  -14.7  145.6   -4.7   332.3
 09 JAN 16  16:01:00:00     419    2.8      18   -2.3      243.1   74.1  -14.7  145.6   -4.7   331.7
 09 JAN 16  16:02:00:00     418    2.1      21   -2.0      243.2   74.0  -14.7  145.6   -4.7   331.2
 09 JAN 16  16:03:00:00     403    1.7      24   -1.1      243.2   73.9  -14.7  145.6   -4.7   330.6
 09 JAN 16  16:04:00:00     386    2.3      23   -1.8      243.3   73.8  -14.8  145.6   -4.7   330.1
 09 JAN 16  16:05:00:00     377    2.7      23   -2.7      243.3   73.7  -14.8  145.6   -4.7   329.5
 09 JAN 16  16:06:00:00     385    2.4      24   -2.3      243.4   73.6  -14.8  145.6   -4.7   329.0
 09 JAN 16  16:07:00:00     377    2.3      23   -2.1      243.4   73.5  -14.8  145.6   -4.7   328.4
 09 JAN 16  16:08:00:00     380    1.5      23   -1.1      243.5   73.3  -14.8  145.6   -4.7   327.9
 09 JAN 16  16:09:00:00     355    2.5      18   -0.1      243.5   73.2  -14.9  145.6   -4.7   327.3
 09 JAN 16  16:10:00:00     368    2.1      22   -1.7      243.6   73.1  -14.9  145.6   -4.7   326.8
 09 JAN 16  16:11:00:00     370    2.4      22   -0.9      243.6   73.0  -14.9  145.6   -4.7   326.2
 09 JAN 16  16:12:00:00     373    2.1      22    0.1      243.7   72.9  -14.9  145.6   -4.7   325.7
 09 JAN 16  16:13:00:00     361    1.6      20    0.9      243.8   72.8  -14.9  145.6   -4.7   325.1
 09 JAN 16  16:14:00:00     356    0.8      19    3.2      243.8   72.7  -14.9  145.6   -4.7   324.6
 09 JAN 16  16:15:00:00     348    1.6      16    0.0      243.9   72.6  -15.0  145.6   -4.8   324.0
 09 JAN 16  16:16:00:00     347    1.8      15   -1.3      243.9   72.5  -15.0  145.6   -4.8   323.5
 09 JAN 16  16:17:00:00     346    2.4      13   -0.1      244.0   72.4  -15.0  145.6   -4.8   322.9
 09 JAN 16  16:18:00:00     345    2.6      11   -3.8      244.0   72.3  -15.0  145.6   -4.8   322.4
 09 JAN 16  16:19:00:00     340    1.9      17   -3.3      244.1   72.2  -15.0  145.6   -4.8   321.8
 09 JAN 16  16:20:00:00     334    1.5      18   -3.8      244.1   72.0  -15.0  145.6   -4.8   321.3
 09 JAN 16  16:21:00:00     342    2.1      16   -5.3      244.2   71.9  -15.1  145.6   -4.8   320.7
 09 JAN 16  16:22:00:00     343    1.8      17   -5.5      244.2   71.8  -15.1  145.6   -4.8   320.2
 09 JAN 16  16:23:00:00     348    2.0      14   -1.8      244.3   71.7  -15.1  145.6   -4.8   319.6
 09 JAN 17  17:00:00:00     346    2.1      12    0.4      244.3   71.6  -15.1  145.6   -4.8   319.1
 09 JAN 17  17:01:00:00     346    2.6      15    1.4      244.4   71.5  -15.1  145.6   -4.8   318.5
 09 JAN 17  17:02:00:00     346    2.4      17    1.1      244.4   71.4  -15.2  145.6   -4.8   318.0
 09 JAN 17  17:03:00:00     348    2.9      16    0.5      244.5   71.3  -15.2  145.6   -4.8   317.4
 09 JAN 17  17:04:00:00     346    2.6      12    0.3      244.5   71.2  -15.2  145.6   -4.8   316.9
 09 JAN 17  17:05:00:00     346    2.4      12    0.7      244.6   71.1  -15.2  145.6   -4.8   316.3
 09 JAN 17  17:06:00:00     347    2.5      11    0.3      244.6   71.0  -15.2  145.6   -4.8   315.8
 09 JAN 17  17:07:00:00     346    2.5      11    0.1      244.7   70.8  -15.2  145.6   -4.8   315.2
 09 JAN 17  17:08:00:00     345    1.9      10    0.5      244.8   70.7  -15.3  145.6   -4.8   314.7
 09 JAN 17  17:09:00:00     345    1.8      11    0.9      244.8   70.6  -15.3  145.6   -4.8   314.1
 09 JAN 17  17:10:00:00     344    1.0      15    0.3      244.9   70.5  -15.3  145.6   -4.8   313.6
 09 JAN 17  17:11:00:00     344    1.1      14    0.3      244.9   70.4  -15.3  145.6   -4.8   313.0
 09 JAN 17  17:12:00:00     344    1.4      13    1.8      245.0   70.3  -15.3  145.6   -4.8   312.5
 09 JAN 17  17:13:00:00     344    1.6      15    1.6      245.0   70.2  -15.3  145.6   -4.8   311.9
 09 JAN 17  17:14:00:00     345    2.4      11    3.1      245.1   70.1  -15.4  145.6   -4.8   311.4
 09 JAN 17  17:15:00:00     347    4.0      12    2.0      245.1   70.0  -15.4  145.6   -4.9   310.8
 09 JAN 17  17:16:00:00     349    5.3      15    2.0      245.2   69.9  -15.4  145.6   -4.9   310.3
 09 JAN 17  17:17:00:00     349    4.9      17    3.0      245.2   69.7  -15.4  145.6   -4.9   309.7
 09 JAN 17  17:18:00:00     346    3.3      17    3.7      245.3   69.6  -15.4  145.6   -4.9   309.2
 09 JAN 17  17:19:00:00     344    2.3      19    3.2      245.3   69.5  -15.5  145.6   -4.9   308.6
 09 JAN 17  17:20:00:00     342    2.4      19    3.7      245.4   69.4  -15.5  145.6   -4.9   308.1
 09 JAN 17  17:21:00:00     343    1.9      17    2.4      245.4   69.3  -15.5  145.6   -4.9   307.5
 09 JAN 17  17:22:00:00     336    1.7      18    1.5      245.5   69.2  -15.5  145.6   -4.9   307.0
 09 JAN 17  17:23:00:00     317    1.9      18    2.1      245.5   69.1  -15.5  145.6   -4.9   306.4
 09 JAN 18  18:00:00:00     313    2.5      18    1.7      245.6   69.0  -15.5  145.6   -4.9   305.9
 09 JAN 18  18:01:00:00     308    3.3      18    2.6      245.6   68.8  -15.6  145.6   -4.9   305.3
 09 JAN 18  18:02:00:00     297    3.1      18    1.7      245.7   68.7  -15.6  145.6   -4.9   304.8
 09 JAN 18  18:03:00:00     320    3.4      19    2.3      245.7   68.6  -15.6  145.6   -4.9   304.2
 09 JAN 18  18:04:00:00     346    3.7      17    1.6      245.8   68.5  -15.6  145.6   -4.9   303.7
 09 JAN 18  18:05:00:00     345    3.5      19    2.6      245.8   68.4  -15.6  145.6   -4.9   303.1
 09 JAN 18  18:06:00:00     345    2.4      14    0.9      245.9   68.3  -15.6  145.6   -4.9   302.6
 09 JAN 18  18:07:00:00     345    1.6      12    0.7      245.9   68.2  -15.7  145.6   -4.9   302.1
 09 JAN 18  18:08:00:00     343    1.4      15    0.4      246.0   68.1  -15.7  145.6   -4.9   301.5
 09 JAN 18  18:09:00:00     345    3.8      11    0.6      246.0   68.0  -15.7  145.6   -4.9   301.0
 09 JAN 18  18:10:00:00     345    4.0      14    0.8      246.1   67.8  -15.7  145.6   -4.9   300.4
 09 JAN 18  18:11:00:00     346    4.5      15    0.3      246.1   67.7  -15.7  145.6   -4.9   299.9
 09 JAN 18  18:12:00:00     345    4.2      17    0.6      246.2   67.6  -15.7  145.6   -4.9   299.3
 09 JAN 18  18:13:00:00     347    4.2      19    0.9      246.2   67.5  -15.8  145.6   -4.9   298.8
 09 JAN 18  18:14:00:00     347    2.6      19    1.0      246.3   67.4  -15.8  145.6   -4.9   298.2
 09 JAN 18  18:15:00:00     346    2.8      18    2.1      246.3   67.3  -15.8  145.6   -4.9   297.7
 09 JAN 18  18:16:00:00     345    3.5      20    3.2      246.4   67.2  -15.8  145.6   -5.0   297.1
 09 JAN 18  18:17:00:00     356    3.0      20    0.6      246.4   67.0  -15.8  145.6   -5.0   296.6
 09 JAN 18  18:18:00:00     358    3.9      22    2.7      246.5   66.9  -15.8  145.6   -5.0   296.0
 09 JAN 18  18:19:00:00     352    7.2      21    1.7      246.5   66.8  -15.9  145.6   -5.0   295.5
 09 JAN 18  18:20:00:00     358    6.5      23    1.8      246.6   66.7  -15.9  145.6   -5.0   294.9
 09 JAN 18  18:21:00:00     412    4.9      24    0.0      246.6   66.6  -15.9  145.6   -5.0   294.4
 09 JAN 18  18:22:00:00     439    5.4      20   -1.6      246.7   66.5  -15.9  145.6   -5.0   293.8
 09 JAN 18  18:23:00:00     446    6.3      25   -1.4      246.7   66.4  -15.9  145.6   -5.0   293.3
 09 JAN 19  19:00:00:00     447    4.4      25   -1.6      246.8   66.3  -15.9  145.6   -5.0   292.7
 09 JAN 19  19:01:00:00     446    4.0      22   -1.7      246.8   66.1  -16.0  145.6   -5.0   292.2
 09 JAN 19  19:02:00:00     449    4.0      23   -2.9      246.9   66.0  -16.0  145.6   -5.0   291.6
 09 JAN 19  19:03:00:00     460    3.1      31   -4.1      246.9   65.9  -16.0  145.6   -5.0   291.1
 09 JAN 19  19:04:00:00     440    2.5      32   -4.5      247.0   65.8  -16.0  145.6   -5.0   290.5
 09 JAN 19  19:05:00:00     434    2.1      34   -1.8      247.0   65.7  -16.0  145.6   -5.0   290.0
 09 JAN 19  19:06:00:00     420    1.4      31    1.4      247.1   65.6  -16.0  145.6   -5.0   289.4
 09 JAN 19  19:07:00:00     428    1.0      29    0.7      247.1   65.5  -16.0  145.6   -5.0   288.9
 09 JAN 19  19:08:00:00     418    1.1      31    2.5      247.2   65.3  -16.1  145.6   -5.0   288.3
 09 JAN 19  19:09:00:00     422    1.0      32    0.8      247.2   65.2  -16.1  145.6   -5.0   287.8
 09 JAN 19  19:10:00:00     415    1.1      29    0.5      247.3   65.1  -16.1  145.6   -5.0   287.2
 09 JAN 19  19:11:00:00     420    1.5      33    2.3      247.3   65.0  -16.1  145.6   -5.0   286.7
 09 JAN 19  19:12:00:00     412    2.4      30   -1.3      247.4   64.9  -16.1  145.6   -5.0   286.1
 09 JAN 19  19:13:00:00     416    4.6      30   -1.1      247.4   64.8  -16.1  145.6   -5.0   285.6
 09 JAN 19  19:14:00:00     421    5.5      30   -2.2      247.5   64.7  -16.2  145.6   -5.0   285.0
 09 JAN 19  19:15:00:00     443    5.8      30   -3.8      247.5   64.5  -16.2  145.6   -5.0   284.5
 09 JAN 19  19:16:00:00     468    4.6      33   -3.1      247.6   64.4  -16.2  145.6   -5.0   283.9
 09 JAN 19  19:17:00:00     474    2.7      34   -1.2      247.6   64.3  -16.2  145.6   -5.1   283.4
 09 JAN 19  19:18:00:00     467    3.1      31   -0.9      247.7   64.2  -16.2  145.6   -5.1   282.8
 09 JAN 19  19:19:00:00     469    3.3      31   -1.2      247.7   64.1  -16.2  145.6   -5.1   282.3
 09 JAN 19  19:20:00:00     468    3.0      31   -1.1      247.8   64.0  -16.3  145.6   -5.1   281.7
 09 JAN 19  19:21:00:00     466    3.0      31   -1.5      247.8   63.8  -16.3  145.6   -5.1   281.2
 09 JAN 19  19:22:00:00     467    3.1      31   -2.0      247.9   63.7  -16.3  145.6   -5.1   280.6
 09 JAN 19  19:23:00:00     470    2.9      32   -1.8      247.9   63.6  -16.3  145.6   -5.1   280.1
 09 JAN 20  20:00:00:00     463    2.6      30   -0.9      248.0   63.5  -16.3  145.6   -5.1   279.5
 09 JAN 20  20:01:00:00     465    2.8      31   -0.7      248.0   63.4  -16.3  145.6   -5.1   279.0
 09 JAN 20  20:02:00:00     464    2.5      31    0.0      248.1   63.3  -16.3  145.6   -5.1   278.4
 09 JAN 20  20:03:00:00     455    2.6      27   -0.3      248.1   63.1  -16.4  145.6   -5.1   277.9
 09 JAN 20  20:04:00:00     449    2.4      24   -1.1      248.2   63.0  -16.4  145.6   -5.1   277.3
 09 JAN 20  20:05:00:00     445    2.3      22   -0.9      248.2   62.9  -16.4  145.6   -5.1   276.8
 09 JAN 20  20:06:00:00     443    2.9      19   -0.4      248.3   62.8  -16.4  145.6   -5.1   276.2
 09 JAN 20  20:07:00:00     444    2.9      19   -0.7      248.3   62.7  -16.4  145.6   -5.1   275.7
 09 JAN 20  20:08:00:00     442    2.9      24   -1.9      248.4   62.6  -16.4  145.6   -5.1   275.1
 09 JAN 20  20:09:00:00     431    2.5      29   -2.4      248.4   62.4  -16.4  145.6   -5.1   274.6
 09 JAN 20  20:10:00:00     414    2.1      32   -2.0      248.4   62.3  -16.5  145.6   -5.1   274.0
 09 JAN 20  20:11:00:00     417    2.2      32   -2.5      248.5   62.2  -16.5  145.6   -5.1   273.5
 09 JAN 20  20:12:00:00     424    2.0      32   -2.4      248.5   62.1  -16.5  145.6   -5.1   272.9
 09 JAN 20  20:13:00:00     424    1.6      32   -1.7      248.6   62.0  -16.5  145.6   -5.1   272.4
 09 JAN 20  20:14:00:00     424    1.8      31   -1.3      248.6   61.9  -16.5  145.6   -5.1   271.8
 09 JAN 20  20:15:00:00     422    1.8      32   -1.2      248.7   61.7  -16.5  145.6   -5.1   271.3
 09 JAN 20  20:16:00:00     419    1.9      31   -1.8      248.7   61.6  -16.6  145.6   -5.1   270.7
 09 JAN 20  20:17:00:00     416    1.9      33   -1.8      248.8   61.5  -16.6  145.6   -5.1   270.2
 09 JAN 20  20:18:00:00     415    1.9      33   -2.3      248.8   61.4  -16.6  145.6   -5.1   269.6
 09 JAN 20  20:19:00:00     409    1.7      32   -1.0      248.9   61.3  -16.6  145.6   -5.2   269.1
 09 JAN 20  20:20:00:00     412    1.6      32   -1.0      248.9   61.2  -16.6  145.6   -5.2   268.5
 09 JAN 20  20:21:00:00     420    1.8      35    1.0      249.0   61.0  -16.6  145.6   -5.2   268.0
 09 JAN 20  20:22:00:00     409    1.7      33    0.6      249.0   60.9  -16.6  145.6   -5.2   267.4
 09 JAN 20  20:23:00:00     391    2.5      30   -0.3      249.1   60.8  -16.7  145.6   -5.2   266.9
 09 JAN 21  21:00:00:00     401    1.9      32    0.0      249.1   60.7  -16.7  145.6   -5.2   266.3
 09 JAN 21  21:01:00:00     398    2.0      31   -0.3      249.1   60.6  -16.7  145.6   -5.2   265.8
 09 JAN 21  21:02:00:00     390    2.4      29   -0.5      249.2   60.4  -16.7  145.6   -5.2   265.2
 09 JAN 21  21:03:00:00     414    1.4      35   -1.0      249.2   60.3  -16.7  145.6   -5.2   264.7
 09 JAN 21  21:04:00:00     413    1.7      35   -1.4      249.3   60.2  -16.7  145.6   -5.2   264.1
 09 JAN 21  21:05:00:00     415    1.7      35   -1.8      249.3   60.1  -16.7  145.6   -5.2   263.6
 09 JAN 21  21:06:00:00     423    1.8      35   -3.5      249.4   60.0  -16.8  145.6   -5.2   263.0
 09 JAN 21  21:07:00:00     425    1.9      35   -3.6      249.4   59.9  -16.8  145.6   -5.2   262.5
 09 JAN 21  21:08:00:00     419    1.5      36   -1.8      249.5   59.7  -16.8  145.6   -5.2   261.9
 09 JAN 21  21:09:00:00     417    1.5      35   -2.1      249.5   59.6  -16.8  145.6   -5.2   261.4
 09 JAN 21  21:10:00:00     423    1.3      36   -2.9      249.6   59.5  -16.8  145.6   -5.2   260.8
 09 JAN 21  21:11:00:00     421    1.2      37   -1.7      249.6   59.4  -16.8  145.6   -5.2   260.3
 09 JAN 21  21:12:00:00     427    2.0      28   -2.8      249.6   59.3  -16.8  145.6   -5.2   259.7
 09 JAN 21  21:13:00:00     445    2.0      22   -3.7      249.7   59.1  -16.9  145.6   -5.2   259.2
 09 JAN 21  21:14:00:00     445    2.0      22   -2.6      249.7   59.0  -16.9  145.6   -5.2   258.6
 09 JAN 21  21:15:00:00     444    2.1      22   -2.5      249.8   58.9  -16.9  145.6   -5.2   258.1
 09 JAN 21  21:16:00:00     441    1.9      25   -2.1      249.8   58.8  -16.9  145.6   -5.2   257.5
 09 JAN 21  21:17:00:00     439    1.8      26   -1.8      249.9   58.7  -16.9  145.6   -5.2   257.0
 09 JAN 21  21:18:00:00     434    1.4      28   -1.5      249.9   58.5  -16.9  145.6   -5.2   256.4
 09 JAN 21  21:19:00:00     420    1.4      32   -1.8      250.0   58.4  -16.9  145.6   -5.2   255.9
 09 JAN 21  21:20:00:00     406    1.7      31   -1.5      250.0   58.3  -17.0  145.6   -5.2   255.3
 09 JAN 21  21:21:00:00     389    1.9      27   -0.2      250.0   58.2  -17.0  145.6   -5.3   254.8
 09 JAN 21  21:22:00:00     400    1.5      29   -0.5      250.1   58.1  -17.0  145.6   -5.3   254.2
 09 JAN 21  21:23:00:00     397    1.4      28   -0.3      250.1   57.9  -17.0  145.6   -5.3   253.7
 09 JAN 22  22:00:00:00     402    1.3      30   -0.4      250.2   57.8  -17.0  145.6   -5.3   253.1
 09 JAN 22  22:01:00:00     419    1.1      31   -1.0      250.2   57.7  -17.0  145.6   -5.3   252.6
 09 JAN 22  22:02:00:00     410    1.2      31   -1.0      250.3   57.6  -17.0  145.6   -5.3   252.0
 09 JAN 22  22:03:00:00     414    1.1      32   -1.6      250.3   57.5  -17.1  145.6   -5.3   251.5
 09 JAN 22  22:04:00:00     387    1.7      26   -0.3      250.3   57.3  -17.1  145.6   -5.3   250.9
 09 JAN 22  22:05:00:00     378    1.7      24   -0.2      250.4   57.2  -17.1  145.6   -5.3   250.4
 09 JAN 22  22:06:00:00     354    2.9      18   -0.6      250.4   57.1  -17.1  145.6   -5.3   249.8
 09 JAN 22  22:07:00:00     346    4.5      10   -2.0      250.5   57.0  -17.1  145.6   -5.3   249.3
 09 JAN 22  22:08:00:00     345    4.3      10   -2.0      250.5   56.9  -17.1  145.6   -5.3   248.7
 09 JAN 22  22:09:00:00     345    4.4      10   -2.1      250.6   56.7  -17.1  145.6   -5.3   248.2
 09 JAN 22  22:10:00:00     345    4.8      10   -3.0      250.6   56.6  -17.1  145.6   -5.3   247.6
 09 JAN 22  22:11:00:00     345    4.9      10   -5.0      250.6   56.5  -17.2  145.6   -5.3   247.1
 09 JAN 22  22:12:00:00     346    3.9      15   -8.4      250.7   56.4  -17.2  145.6   -5.3   246.5
 09 JAN 22  22:13:00:00     340    3.1      17   -7.7      250.7   56.2  -17.2  145.6   -5.3   246.0
 09 JAN 22  22:14:00:00     338    2.2      19   -7.6      250.8   56.1  -17.2  145.6   -5.3   245.4
 09 JAN 22  22:15:00:00     345    1.5      19   -6.6      250.8   56.0  -17.2  145.6   -5.3   244.9
 09 JAN 22  22:16:00:00     333    1.3      21   -5.9      250.9   55.9  -17.2  145.6   -5.3   244.3
 09 JAN 22  22:17:00:00     331    1.3      21   -6.0      250.9   55.8  -17.2  145.6   -5.3   243.8
 09 JAN 22  22:18:00:00     330    1.4      20   -7.3      250.9   55.6  -17.3  145.6   -5.3   243.2
 09 JAN 22  22:19:00:00     325    1.5      21   -3.8      251.0   55.5  -17.3  145.6   -5.3   242.7
 09 JAN 22  22:20:00:00     312    2.0      20   -0.2      251.0   55.4  -17.3  145.6   -5.3   242.1
 09 JAN 22  22:21:00:00     299    2.6      19    0.3      251.1   55.3  -17.3  145.6   -5.3   241.6
 09 JAN 22  22:22:00:00     301    2.4      19    0.2      251.1   55.1  -17.3  145.6   -5.3   241.0
 09 JAN 22  22:23:00:00     283    3.8      17    0.4      251.1   55.0  -17.3  145.6   -5.4   240.5
 09 JAN 23  23:00:00:00     296    2.0      18    0.2      251.2   54.9  -17.3  145.6   -5.4   239.9
 09 JAN 23  23:01:00:00     292    1.4      19    0.6      251.2   54.8  -17.3  145.6   -5.4   239.4
 09 JAN 23  23:02:00:00     284    1.7      17    1.3      251.3   54.7  -17.4  145.6   -5.4   238.8
 09 JAN 23  23:03:00:00     275    3.1      13    1.2      251.3   54.5  -17.4  145.6   -5.4   238.3
 09 JAN 23  23:04:00:00     283    2.1      17    0.9      251.3   54.4  -17.4  145.6   -5.4   237.7
 09 JAN 23  23:05:00:00     302    1.4      19    0.6      251.4   54.3  -17.4  145.6   -5.4   237.2
 09 JAN 23  23:06:00:00     324    0.9      21   -1.8      251.4   54.2  -17.4  145.6   -5.4   236.6
 09 JAN 23  23:07:00:00     309    0.7      20    0.8      251.5   54.0  -17.4  145.6   -5.4   236.1
 09 JAN 23  23:08:00:00     318    0.5      22    0.8      251.5   53.9  -17.4  145.6   -5.4   235.5
 09 JAN 23  23:09:00:00     317    0.6      22    0.3      251.5   53.8  -17.4  145.6   -5.4   235.0
 09 JAN 23  23:10:00:00     337    0.5      26   -2.5      251.6   53.7  -17.5  145.6   -5.4   234.4
 09 JAN 23  23:11:00:00     334    0.6      24   -2.8      251.6   53.6  -17.5  145.6   -5.4   233.9
 09 JAN 23  23:12:00:00     321    0.8      22   -0.3      251.7   53.4  -17.5  145.6   -5.4   233.3
 09 JAN 23  23:13:00:00     345    0.5      25   -1.5      251.7   53.3  -17.5  145.6   -5.4   232.8
 09 JAN 23  23:14:00:00     347    0.4      25   -2.0      251.7   53.2  -17.5  145.6   -5.4   232.2
 09 JAN 23  23:15:00:00     348    0.5      26   -2.4      251.8   53.1  -17.5  145.6   -5.4   231.7
 09 JAN 23  23:16:00:00     346    0.4      26   -2.0      251.8   52.9  -17.5  145.7   -5.4   231.1
 09 JAN 23  23:17:00:00     348    0.4      26   -2.0      251.9   52.8  -17.5  145.7   -5.4   230.6
 09 JAN 23  23:18:00:00     340    0.4      26   -0.7      251.9   52.7  -17.6  145.7   -5.4   230.0
 09 JAN 23  23:19:00:00     331    0.5      24   -1.2      251.9   52.6  -17.6  145.7   -5.4   229.5
 09 JAN 23  23:20:00:00     318    0.6      22    0.8      252.0   52.4  -17.6  145.7   -5.4   228.9
 09 JAN 23  23:21:00:00     307    0.9      20    1.0      252.0   52.3  -17.6  145.7   -5.4   228.4
 09 JAN 23  23:22:00:00     324    0.6      22    0.0      252.1   52.2  -17.6  145.7   -5.4   227.8
 09 JAN 23  23:23:00:00     329    0.5      23   -1.2      252.1   52.1  -17.6  145.7   -5.4   227.3
 09 JAN 24  24:00:00:00     335    0.5      24   -2.7      252.1   51.9  -17.6  145.7   -5.4   226.7
 09 JAN 24  24:01:00:00     324    0.7      22   -1.8      252.2   51.8  -17.6  145.7   -5.4   226.2
 09 JAN 24  24:02:00:00     305    1.2      19   -1.8      252.2   51.7  -17.7  145.7   -5.4   225.6
 09 JAN 24  24:03:00:00     315    1.1      19   -0.2      252.2   51.6  -17.7  145.7   -5.5   225.1
 09 JAN 24  24:04:00:00     308    1.6      19    0.4      252.3   51.4  -17.7  145.7   -5.5   224.5
 09 JAN 24  24:05:00:00     326    0.7      21   -1.5      252.3   51.3  -17.7  145.7   -5.5   224.0
 09 JAN 24  24:06:00:00     318    0.8      20    0.2      252.4   51.2  -17.7  145.7   -5.5   223.5
 09 JAN 24  24:07:00:00     318    0.8      21   -1.3      252.4   51.1  -17.7  145.7   -5.5   222.9
 09 JAN 24  24:08:00:00     292    1.7      19    1.1      252.4   50.9  -17.7  145.7   -5.5   222.4
 09 JAN 24  24:09:00:00     289    1.8      18    1.2      252.5   50.8  -17.7  145.7   -5.5   221.8
 09 JAN 24  24:10:00:00     284    2.6      17    1.4      252.5   50.7  -17.7  145.7   -5.5   221.3
 09 JAN 24  24:11:00:00     281    2.5      17    1.5      252.5   50.6  -17.8  145.7   -5.5   220.7
 09 JAN 24  24:12:00:00     286    3.7      17   -0.3      252.6   50.4  -17.8  145.7   -5.5   220.2
 09 JAN 24  24:13:00:00     282    6.3      16   -1.4      252.6   50.3  -17.8  145.7   -5.5   219.6
 09 JAN 24  24:14:00:00     272    7.3       9   -1.4      252.7   50.2  -17.8  145.7   -5.5   219.1
 09 JAN 24  24:15:00:00     272    7.7       9   -1.9      252.7   50.1  -17.8  145.7   -5.5   218.5
 09 JAN 24  24:16:00:00     272    8.5       8   -2.0      252.7   49.9  -17.8  145.7   -5.5   218.0
 09 JAN 24  24:17:00:00     271    7.8       7   -1.3      252.8   49.8  -17.8  145.7   -5.5   217.4
 09 JAN 24  24:18:00:00     272    6.7       8   -1.1      252.8   49.7  -17.8  145.7   -5.5   216.9
 09 JAN 24  24:19:00:00     271    6.1       7   -1.2      252.8   49.6  -17.9  145.7   -5.5   216.3
 09 JAN 24  24:20:00:00     271    5.7       7   -0.5      252.9   49.4  -17.9  145.7   -5.5   215.8
 09 JAN 24  24:21:00:00     270    5.8       5    0.0      252.9   49.3  -17.9  145.7   -5.5   215.2
 09 JAN 24  24:22:00:00     270    6.4       5   -0.6      252.9   49.2  -17.9  145.7   -5.5   214.7
 09 JAN 24  24:23:00:00     270    6.2       5   -0.8      253.0   49.0  -17.9  145.7   -5.5   214.1
 09 JAN 25  25:00:00:00     271    7.0       7   -0.9      253.0   48.9  -17.9  145.7   -5.5   213.6
 09 JAN 25  25:01:00:00     270    8.8       6   -2.6      253.0   48.8  -17.9  145.7   -5.5   213.0
 09 JAN 25  25:02:00:00     274   14.7      11   -6.3      253.1   48.7  -17.9  145.7   -5.5   212.5
 09 JAN 25  25:03:00:00     274   13.2      13   -6.1      253.1   48.5  -17.9  145.7   -5.5   211.9
 09 JAN 25  25:04:00:00     278    5.8      16   -1.2      253.1   48.4  -18.0  145.7   -5.5   211.4
 09 JAN 25  25:05:00:00     282    5.7      17   -1.2      253.2   48.3  -18.0  145.7   -5.5   210.8
 09 JAN 25  25:06:00:00     273    5.3      11   -0.2      253.2   48.2  -18.0  145.7   -5.5   210.3
 09 JAN 25  25:07:00:00     272    7.1      10   -1.5      253.3   48.0  -18.0  145.7   -5.6   209.7
 09 JAN 25  25:08:00:00     272    7.3       9   -2.1      253.3   47.9  -18.0  145.7   -5.6   209.2
 09 JAN 25  25:09:00:00     272    8.9      10   -3.6      253.3   47.8  -18.0  145.7   -5.6   208.6
 09 JAN 25  25:10:00:00     273    7.5      11   -3.2      253.4   47.6  -18.0  145.7   -5.6   208.1
 09 JAN 25  25:11:00:00     273    5.6      12   -0.9      253.4   47.5  -18.0  145.7   -5.6   207.5
 09 JAN 25  25:12:00:00     274    5.4      13   -0.5      253.4   47.4  -18.0  145.7   -5.6   207.0
 09 JAN 25  25:13:00:00     274    3.5      12    1.2      253.5   47.3  -18.1  145.7   -5.6   206.4
 09 JAN 25  25:14:00:00     275    4.0      14    0.7      253.5   47.1  -18.1  145.7   -5.6   205.9
 09 JAN 25  25:15:00:00     272    4.5      10    0.6      253.5   47.0  -18.1  145.7   -5.6   205.3
 09 JAN 25  25:16:00:00     277    4.5      14    0.2      253.6   46.9  -18.1  145.7   -5.6   204.8
 09 JAN 25  25:17:00:00     272    5.7      10   -0.7      253.6   46.7  -18.1  145.7   -5.6   204.2
 09 JAN 25  25:18:00:00     271    6.9       7   -1.3      253.6   46.6  -18.1  145.7   -5.6   203.7
 09 JAN 25  25:19:00:00     273    5.5       9   -0.1      253.6   46.5  -18.1  145.7   -5.6   203.1
 09 JAN 25  25:20:00:00     328    1.9      22    2.5      253.7   46.4  -18.1  145.7   -5.6   202.6
 09 JAN 25  25:21:00:00     346    5.4      24    1.7      253.7   46.2  -18.1  145.7   -5.6   202.0
 09 JAN 25  25:22:00:00     342    4.9      23   -2.1      253.7   46.1  -18.1  145.7   -5.6   201.5
 09 JAN 25  25:23:00:00     360    8.0      24    2.2      253.8   46.0  -18.2  145.7   -5.6   200.9
 09 JAN 26  26:00:00:00      -1   -1.0      -1   99.0      253.8   45.8  -18.2  145.7   -5.6   200.4
 09 JAN 26  26:01:00:00      -1   -1.0      -1   99.0      253.8   45.7  -18.2  145.7   -5.6   199.8
 09 JAN 26  26:02:00:00      -1   -1.0      -1   99.0      253.9   45.6  -18.2  145.7   -5.6   199.3
 09 JAN 26  26:03:00:00      -1   -1.0      -1   99.0      253.9   45.5  -18.2  145.7   -5.6   198.7
 09 JAN 26  26:04:00:00      -1   -1.0      -1   99.0      253.9   45.3  -18.2  145.7   -5.6   198.2
 09 JAN 26  26:05:00:00     349    4.3      16    0.5      254.0   45.2  -18.2  145.7   -5.6   197.6
 09 JAN 26  26:06:00:00     353    8.2      19    1.6      254.0   45.1  -18.2  145.7   -5.6   197.1
 09 JAN 26  26:07:00:00     347    5.7      14   -0.7      254.0   44.9  -18.2  145.7   -5.6   196.5
 09 JAN 26  26:08:00:00     346    4.6      10   -1.7      254.1   44.8  -18.3  145.7   -5.6   196.0
 09 JAN 26  26:09:00:00     345    4.9      14   -1.1      254.1   44.7  -18.3  145.7   -5.6   195.4
 09 JAN 26  26:10:00:00     345    4.6      11   -2.0      254.1   44.5  -18.3  145.7   -5.6   194.9
 09 JAN 26  26:11:00:00     345    4.0      11   -1.9      254.2   44.4  -18.3  145.7   -5.7   194.3
 09 JAN 26  26:12:00:00     345    3.2      17   -4.2      254.2   44.3  -18.3  145.7   -5.7   193.8
 09 JAN 26  26:13:00:00     348    0.9      17   -1.1      254.2   44.2  -18.3  145.7   -5.7   193.2
 09 JAN 26  26:14:00:00     338    2.7      17   -1.7      254.2   44.0  -18.3  145.7   -5.7   192.7
 09 JAN 26  26:15:00:00     342    4.7      20   -0.9      254.3   43.9  -18.3  145.7   -5.7   192.1
 09 JAN 26  26:16:00:00     343    5.0      20    0.5      254.3   43.8  -18.3  145.7   -5.7   191.6
 09 JAN 26  26:17:00:00     345    3.6      18    0.8      254.3   43.6  -18.3  145.7   -5.7   191.0
 09 JAN 26  26:18:00:00     344    3.5      21    0.4      254.4   43.5  -18.4  145.7   -5.7   190.5
 09 JAN 26  26:19:00:00     344    5.0      20   -3.3      254.4   43.4  -18.4  145.7   -5.7   189.9
 09 JAN 26  26:20:00:00     346    5.3      20   -3.0      254.4   43.2  -18.4  145.7   -5.7   189.4
 09 JAN 26  26:21:00:00     350    7.1      21   -4.6      254.4   43.1  -18.4  145.7   -5.7   188.8
 09 JAN 26  26:22:00:00     343    6.7      21   -3.4      254.5   43.0  -18.4  145.7   -5.7   188.3
 09 JAN 26  26:23:00:00     352    6.1      21   -2.6      254.5   42.8  -18.4  145.7   -5.7   187.7
 09 JAN 27  27:00:00:00     349    5.7      20   -2.1      254.5   42.7  -18.4  145.7   -5.7   187.2
 09 JAN 27  27:01:00:00     358    5.2      22   -1.4      254.6   42.6  -18.4  145.7   -5.7   186.6
 09 JAN 27  27:02:00:00     362    6.0      22   -1.5      254.6   42.5  -18.4  145.7   -5.7   186.1
 09 JAN 27  27:03:00:00     362    6.4      22   -2.3      254.6   42.3  -18.4  145.7   -5.7   185.5
 09 JAN 27  27:04:00:00     362    6.2      22    1.3      254.6   42.2  -18.5  145.7   -5.7   185.0
 09 JAN 27  27:05:00:00     355    8.3      20    4.3      254.7   42.1  -18.5  145.7   -5.7   184.4
 09 JAN 27  27:06:00:00     353    7.7      20    4.8      254.7   41.9  -18.5  145.7   -5.7   183.9
 09 JAN 27  27:07:00:00     362    5.5      21    3.3      254.7   41.8  -18.5  145.7   -5.7   183.3
 09 JAN 27  27:08:00:00     398    5.2      26    5.9      254.8   41.7  -18.5  145.7   -5.7   182.8
 09 JAN 27  27:09:00:00     386    4.4      25    7.0      254.8   41.5  -18.5  145.7   -5.7   182.2
 09 JAN 27  27:10:00:00     379    5.1      24    7.3      254.8   41.4  -18.5  145.7   -5.7   181.7
 09 JAN 27  27:11:00:00     373    3.7      23    5.8      254.8   41.3  -18.5  145.7   -5.7   181.1
 09 JAN 27  27:12:00:00     367    3.2      22    5.7      254.9   41.1  -18.5  145.7   -5.7   180.6
 09 JAN 27  27:13:00:00     367    3.1      22    4.8      254.9   41.0  -18.5  145.7   -5.7   180.0
 09 JAN 27  27:14:00:00     367    2.5      23    3.6      254.9   40.9  -18.5  145.7   -5.7   179.5
 09 JAN 27  27:15:00:00     354    3.7      20    3.4      254.9   40.7  -18.6  145.7   -5.7   178.9
 09 JAN 27  27:16:00:00     366    2.7      22    4.8      255.0   40.6  -18.6  145.7   -5.8   178.4
 09 JAN 27  27:17:00:00     350    3.0      17    1.8      255.0   40.5  -18.6  145.7   -5.8   177.8
 09 JAN 27  27:18:00:00     350    2.8      18    0.7      255.0   40.3  -18.6  145.7   -5.8   177.3
 09 JAN 27  27:19:00:00     350    3.0      19    0.4      255.1   40.2  -18.6  145.7   -5.8   176.7
 09 JAN 27  27:20:00:00     353    2.7      19    0.2      255.1   40.1  -18.6  145.7   -5.8   176.2
 09 JAN 27  27:21:00:00     347    2.7      14    0.7      255.1   39.9  -18.6  145.7   -5.8   175.6
 09 JAN 27  27:22:00:00     347    2.3      14    1.1      255.1   39.8  -18.6  145.7   -5.8   175.1
 09 JAN 27  27:23:00:00     349    1.9      17    0.0      255.2   39.7  -18.6  145.7   -5.8   174.5
 09 JAN 28  28:00:00:00     352    1.5      18    0.1      255.2   39.5  -18.6  145.7   -5.8   174.0
 09 JAN 28  28:01:00:00     349    1.9      16    0.3      255.2   39.4  -18.6  145.7   -5.8   173.4
 09 JAN 28  28:02:00:00     346    1.7      14   -1.5      255.2   39.3  -18.7  145.7   -5.8   172.9
 09 JAN 28  28:03:00:00     336    0.5      18   -3.4      255.3   39.1  -18.7  145.7   -5.8   172.3
 09 JAN 28  28:04:00:00     324    0.2      19   -1.5      255.3   39.0  -18.7  145.7   -5.8   171.8
 09 JAN 28  28:05:00:00     306    0.2      19    0.3      255.3   38.9  -18.7  145.7   -5.8   171.2
 09 JAN 28  28:06:00:00     342    3.3      15   -6.4      255.3   38.7  -18.7  145.7   -5.8   170.7
 09 JAN 28  28:07:00:00     342    5.5      17   -9.7      255.4   38.6  -18.7  145.7   -5.8   170.1
 09 JAN 28  28:08:00:00     341    5.5      18   -9.7      255.4   38.5  -18.7  145.7   -5.8   169.6
 09 JAN 28  28:09:00:00     345    3.9      19   -9.2      255.4   38.3  -18.7  145.7   -5.8   169.0
 09 JAN 28  28:10:00:00     345    5.9      16   -6.0      255.4   38.2  -18.7  145.7   -5.8   168.5
 09 JAN 28  28:11:00:00     349    7.3      19   -6.8      255.4   38.0  -18.7  145.7   -5.8   167.9
 09 JAN 28  28:12:00:00     350    6.2      19   -4.0      255.5   37.9  -18.7  145.7   -5.8   167.4
 09 JAN 28  28:13:00:00     348    4.7      15   -0.6      255.5   37.8  -18.8  145.7   -5.8   166.8
 09 JAN 28  28:14:00:00     347    3.7      14   -1.2      255.5   37.6  -18.8  145.7   -5.8   166.3
 09 JAN 28  28:15:00:00     347    3.5      16   -1.5      255.5   37.5  -18.8  145.7   -5.8   165.7
 09 JAN 28  28:16:00:00     347    3.4      16   -2.0      255.6   37.4  -18.8  145.7   -5.8   165.2
 09 JAN 28  28:17:00:00     346    3.0      18   -3.0      255.6   37.2  -18.8  145.7   -5.8   164.6
 09 JAN 28  28:18:00:00     351    3.7      21   -2.9      255.6   37.1  -18.8  145.7   -5.8   164.1
 09 JAN 28  28:19:00:00     368    5.5      23   -3.5      255.6   37.0  -18.8  145.7   -5.8   163.5
 09 JAN 28  28:20:00:00     369    3.6      23   -1.3      255.7   36.8  -18.8  145.7   -5.8   163.0
 09 JAN 28  28:21:00:00     382    3.7      23   -4.8      255.7   36.7  -18.8  145.7   -5.8   162.5
 09 JAN 28  28:22:00:00     397    1.7      25   -4.6      255.7   36.6  -18.8  145.7   -5.8   161.9
 09 JAN 28  28:23:00:00     398    2.5      25   -2.4      255.7   36.4  -18.8  145.7   -5.9   161.4
 09 JAN 29  29:00:00:00     399    2.6      25   -1.8      255.7   36.3  -18.8  145.7   -5.9   160.8
 09 JAN 29  29:01:00:00     376    4.2      23   -2.3      255.8   36.1  -18.9  145.7   -5.9   160.3
 09 JAN 29  29:02:00:00     382    5.6      24   -3.2      255.8   36.0  -18.9  145.7   -5.9   159.7
 09 JAN 29  29:03:00:00     374    7.4      23   -4.0      255.8   35.9  -18.9  145.7   -5.9   159.2
 09 JAN 29  29:04:00:00     367    7.1      22   -4.0      255.8   35.7  -18.9  145.7   -5.9   158.6
 09 JAN 29  29:05:00:00     369    5.7      22   -3.8      255.9   35.6  -18.9  145.7   -5.9   158.1
 09 JAN 29  29:06:00:00     418    2.5      32   -1.4      255.9   35.5  -18.9  145.7   -5.9   157.5
 09 JAN 29  29:07:00:00     428    1.9      33   -1.6      255.9   35.3  -18.9  145.7   -5.9   157.0
 09 JAN 29  29:08:00:00     413    1.9      33   -1.1      255.9   35.2  -18.9  145.7   -5.9   156.4
 09 JAN 29  29:09:00:00     391    1.8      29    0.4      255.9   35.1  -18.9  145.7   -5.9   155.9
 09 JAN 29  29:10:00:00     375    2.0      25    1.0      256.0   34.9  -18.9  145.7   -5.9   155.3
 09 JAN 29  29:11:00:00     383    1.8      26    2.2      256.0   34.8  -18.9  145.7   -5.9   154.8
 09 JAN 29  29:12:00:00     396    1.6      30    1.9      256.0   34.6  -18.9  145.7   -5.9   154.2
 09 JAN 29  29:13:00:00     395    1.6      29    2.9      256.0   34.5  -18.9  145.7   -5.9   153.7
 09 JAN 29  29:14:00:00     395    1.4      29    1.6      256.0   34.4  -19.0  145.7   -5.9   153.1
 09 JAN 29  29:15:00:00     416    1.0      33    2.1      256.1   34.2  -19.0  145.7   -5.9   152.6
 09 JAN 29  29:16:00:00     403    1.2      32    1.4      256.1   34.1  -19.0  145.7   -5.9   152.0
 09 JAN 29  29:17:00:00     439    1.4      23    2.7      256.1   33.9  -19.0  145.7   -5.9   151.5
 09 JAN 29  29:18:00:00     416    1.1      28    2.4      256.1   33.8  -19.0  145.7   -5.9   150.9
 09 JAN 29  29:19:00:00     408    1.2      29    2.6      256.1   33.7  -19.0  145.7   -5.9   150.4
 09 JAN 29  29:20:00:00     410    1.3      32    3.3      256.2   33.5  -19.0  145.7   -5.9   149.8
 09 JAN 29  29:21:00:00     415    1.4      30    2.9      256.2   33.4  -19.0  145.7   -5.9   149.3
 09 JAN 29  29:22:00:00     410    1.2      30    3.1      256.2   33.3  -19.0  145.7   -5.9   148.7
 09 JAN 29  29:23:00:00     394    1.3      29    1.6      256.2   33.1  -19.0  145.7   -5.9   148.2
 09 JAN 30  30:00:00:00     378    1.7      25    0.8      256.2   33.0  -19.0  145.7   -5.9   147.6
 09 JAN 30  30:01:00:00     374    2.0      24    0.3      256.2   32.8  -19.0  145.7   -5.9   147.1
 09 JAN 30  30:02:00:00     371    2.2      23    0.3      256.3   32.7  -19.0  145.7   -5.9   146.5
 09 JAN 30  30:03:00:00     354    3.1      20    0.8      256.3   32.6  -19.1  145.7   -5.9   146.0
 09 JAN 30  30:04:00:00     349    3.1      17    0.7      256.3   32.4  -19.1  145.7   -5.9   145.4
 09 JAN 30  30:05:00:00     348    3.3      15    0.7      256.3   32.3  -19.1  145.7   -5.9   144.9
 09 JAN 30  30:06:00:00     349    2.8      16    0.0      256.3   32.1  -19.1  145.7   -6.0   144.3
 09 JAN 30  30:07:00:00     349    2.8      17   -0.2      256.4   32.0  -19.1  145.7   -6.0   143.8
 09 JAN 30  30:08:00:00     353    2.7      20   -0.1      256.4   31.9  -19.1  145.7   -6.0   143.2
 09 JAN 30  30:09:00:00     358    5.0      21    2.1      256.4   31.7  -19.1  145.7   -6.0   142.7
 09 JAN 30  30:10:00:00     357    5.1      20    0.7      256.4   31.6  -19.1  145.7   -6.0   142.1
 09 JAN 30  30:11:00:00     350    4.6      18    0.8      256.4   31.4  -19.1  145.7   -6.0   141.6
 09 JAN 30  30:12:00:00     356    3.9      20    0.1      256.4   31.3  -19.1  145.7   -6.0   141.0
 09 JAN 30  30:13:00:00     347    3.0      20    0.3      256.5   31.2  -19.1  145.7   -6.0   140.5
 09 JAN 30  30:14:00:00     344    2.3      17   -0.4      256.5   31.0  -19.1  145.7   -6.0   139.9
 09 JAN 30  30:15:00:00     346    4.2      19    0.7      256.5   30.9  -19.1  145.7   -6.0   139.4
 09 JAN 30  30:16:00:00     348    3.4      17   -1.0      256.5   30.7  -19.2  145.7   -6.0   138.8
 09 JAN 30  30:17:00:00     348    4.4      17   -2.1      256.5   30.6  -19.2  145.7   -6.0   138.3
 09 JAN 30  30:18:00:00     350    4.4      19   -0.8      256.5   30.5  -19.2  145.7   -6.0   137.7
 09 JAN 30  30:19:00:00     352    4.7      20    0.9      256.6   30.3  -19.2  145.7   -6.0   137.2
 09 JAN 30  30:20:00:00     356    5.6      21   -0.1      256.6   30.2  -19.2  145.7   -6.0   136.6
 09 JAN 30  30:21:00:00     404    8.1      26    2.0      256.6   30.0  -19.2  145.7   -6.0   136.1
 09 JAN 30  30:22:00:00     392    7.5      26    2.7      256.6   29.9  -19.2  145.7   -6.0   135.5
 09 JAN 30  30:23:00:00     431    7.2      29    4.1      256.6   29.8  -19.2  145.7   -6.0   135.0
 09 JAN 31  31:00:00:00     407    5.5      32   -1.1      256.6   29.6  -19.2  145.7   -6.0   134.4
 09 JAN 31  31:01:00:00     421    6.4      34    3.0      256.7   29.5  -19.2  145.7   -6.0   133.9
 09 JAN 31  31:02:00:00     429    7.1      32    2.4      256.7   29.3  -19.2  145.7   -6.0   133.3
 09 JAN 31  31:03:00:00     414    8.1      31    3.4      256.7   29.2  -19.2  145.8   -6.0   132.8
 09 JAN 31  31:04:00:00     431    7.0      33    1.0      256.7   29.0  -19.2  145.8   -6.0   132.2
 09 JAN 31  31:05:00:00     463    3.1      38    1.2      256.7   28.9  -19.2  145.8   -6.0   131.7
 09 JAN 31  31:06:00:00     495    2.6      43    1.1      256.7   28.8  -19.2  145.8   -6.0   131.1
 09 JAN 31  31:07:00:00     497    3.0      43   -1.0      256.7   28.6  -19.3  145.8   -6.0   130.6
 09 JAN 31  31:08:00:00     477    3.2      40   -3.0      256.8   28.5  -19.3  145.8   -6.0   130.0
 09 JAN 31  31:09:00:00     461    3.8      35   -2.5      256.8   28.3  -19.3  145.8   -6.0   129.5
 09 JAN 31  31:10:00:00     439    4.9      31   -1.3      256.8   28.2  -19.3  145.8   -6.0   128.9
 09 JAN 31  31:11:00:00     433    4.9      34   -3.8      256.8   28.1  -19.3  145.8   -6.0   128.4
 09 JAN 31  31:12:00:00     427    3.7      34   -2.3      256.8   27.9  -19.3  145.8   -6.0   127.8
 09 JAN 31  31:13:00:00     458    2.3      35   -2.3      256.8   27.8  -19.3  145.8   -6.0   127.3
 09 JAN 31  31:14:00:00     475    2.0      35   -2.1      256.8   27.6  -19.3  145.8   -6.1   126.7
 09 JAN 31  31:15:00:00     466    2.3      31   -1.9      256.9   27.5  -19.3  145.8   -6.1   126.2
 09 JAN 31  31:16:00:00     470    2.2      33   -1.9      256.9   27.3  -19.3  145.8   -6.1   125.6
 09 JAN 31  31:17:00:00     468    2.0      34   -2.0      256.9   27.2  -19.3  145.8   -6.1   125.1
 09 JAN 31  31:18:00:00     466    1.3      37   -1.2      256.9   27.0  -19.3  145.8   -6.1   124.5
 09 JAN 31  31:19:00:00     497    1.1      41   -1.5      256.9   26.9  -19.3  145.8   -6.1   124.0
 09 JAN 31  31:20:00:00     504    1.0      42   -0.4      256.9   26.8  -19.3  145.8   -6.1   123.4
 09 JAN 31  31:21:00:00     507    0.9      42   -0.5      256.9   26.6  -19.3  145.8   -6.1   122.9
 09 JAN 31  31:22:00:00     489    1.1      38   -0.3      257.0   26.5  -19.4  145.8   -6.1   122.3
 09 JAN 31  31:23:00:00     481    1.4      36    0.3      257.0   26.3  -19.4  145.8   -6.1   121.8
 09 FEB  1  32:00:00:00     465    1.6      31   -1.6      257.0   26.2  -19.4  145.8   -6.1   121.2
 09 FEB  1  32:01:00:00     457    1.6      27   -1.5      257.0   26.0  -19.4  145.8   -6.1   120.7
 09 FEB  1  32:02:00:00     462    1.4      28   -1.4      257.0   25.9  -19.4  145.8   -6.1   120.1
 09 FEB  1  32:03:00:00     500    0.9      40   -0.4      257.0   25.8  -19.4  145.8   -6.1   119.6
 09 FEB  1  32:04:00:00     482    0.9      36   -1.3      257.0   25.6  -19.4  145.8   -6.1   119.0
 09 FEB  1  32:05:00:00     469    1.3      32   -0.7      257.0   25.5  -19.4  145.8   -6.1   118.5
 09 FEB  1  32:06:00:00     460    1.2      28   -0.3      257.0   25.3  -19.4  145.8   -6.1   117.9
 09 FEB  1  32:07:00:00     452    1.0      25   -1.3      257.1   25.2  -19.4  145.8   -6.1   117.4
 09 FEB  1  32:08:00:00     448    0.9      24   -1.3      257.1   25.0  -19.4  145.8   -6.1   116.8
 09 FEB  1  32:09:00:00     446    0.8      25   -0.9      257.1   24.9  -19.4  145.8   -6.1   116.3
 09 FEB  1  32:10:00:00     437    0.8      29   -0.2      257.1   24.7  -19.4  145.8   -6.1   115.7
 09 FEB  1  32:11:00:00     423    0.8      29   -0.1      257.1   24.6  -19.4  145.8   -6.1   115.2
 09 FEB  1  32:12:00:00     416    0.8      28   -0.5      257.1   24.5  -19.4  145.8   -6.1   114.6
 09 FEB  1  32:13:00:00     415    0.7      28   -0.6      257.1   24.3  -19.4  145.8   -6.1   114.1
 09 FEB  1  32:14:00:00      -1   -1.0      -1   99.0      257.1   24.2  -19.4  145.8   -6.1   113.5
 09 FEB  1  32:15:00:00      -1   -1.0      -1   99.0      257.2   24.0  -19.5  145.8   -6.1   113.0
 09 FEB  1  32:16:00:00      -1   -1.0      -1   99.0      257.2   23.9  -19.5  145.8   -6.1   112.4
 09 FEB  1  32:17:00:00      -1   -1.0      -1   99.0      257.2   23.7  -19.5  145.8   -6.1   111.9
 09 FEB  1  32:18:00:00      -1   -1.0      -1   99.0      257.2   23.6  -19.5  145.8   -6.1   111.3
 09 FEB  1  32:19:00:00      -1   -1.0      -1   99.0      257.2   23.4  -19.5  145.8   -6.1   110.8
 09 FEB  1  32:20:00:00     359    2.1      21   -0.9      257.2   23.3  -19.5  145.8   -6.1   110.3
 09 FEB  1  32:21:00:00     357    2.2      21    0.1      257.2   23.1  -19.5  145.8   -6.1   109.7
 09 FEB  1  32:22:00:00     356    2.3      20   -0.3      257.2   23.0  -19.5  145.8   -6.1   109.2
 09 FEB  1  32:23:00:00     355    2.3      20   -0.3      257.2   22.8  -19.5  145.8   -6.2   108.6
 09 FEB  2  33:00:00:00     355    2.3      20   -0.5      257.2   22.7  -19.5  145.8   -6.2   108.1
 09 FEB  2  33:01:00:00     361    2.3      21   -0.8      257.3   22.6  -19.5  145.8   -6.2   107.5
 09 FEB  2  33:02:00:00     365    1.6      22    0.1      257.3   22.4  -19.5  145.8   -6.2   107.0
 09 FEB  2  33:03:00:00     351    2.2      19    0.3      257.3   22.3  -19.5  145.8   -6.2   106.4
 09 FEB  2  33:04:00:00     348    2.0      16    0.0      257.3   22.1  -19.5  145.8   -6.2   105.9
 09 FEB  2  33:05:00:00     349    1.5      16    0.3      257.3   22.0  -19.5  145.8   -6.2   105.3
 09 FEB  2  33:06:00:00     348    1.6      14    0.4      257.3   21.8  -19.5  145.8   -6.2   104.8
 09 FEB  2  33:07:00:00     347    1.9      13    0.3      257.3   21.7  -19.5  145.8   -6.2   104.2
 09 FEB  2  33:08:00:00     347    2.0      13    0.3      257.3   21.5  -19.5  145.8   -6.2   103.7
 09 FEB  2  33:09:00:00     346    2.2      11    0.3      257.3   21.4  -19.6  145.8   -6.2   103.1
 09 FEB  2  33:10:00:00     346    2.0      10    0.2      257.3   21.2  -19.6  145.8   -6.2   102.6
 09 FEB  2  33:11:00:00     346    1.9      10    0.2      257.3   21.1  -19.6  145.8   -6.2   102.0
 09 FEB  2  33:12:00:00     346    1.7      10    0.1      257.4   20.9  -19.6  145.8   -6.2   101.5
 09 FEB  2  33:13:00:00     346    1.8      11    0.0      257.4   20.8  -19.6  145.8   -6.2   100.9
 09 FEB  2  33:14:00:00     346    1.7      13    0.2      257.4   20.6  -19.6  145.8   -6.2   100.4
 09 FEB  2  33:15:00:00     346    1.4      12    0.2      257.4   20.5  -19.6  145.8   -6.2    99.8
 09 FEB  2  33:16:00:00     346    1.2      15    0.3      257.4   20.3  -19.6  145.8   -6.2    99.3
 09 FEB  2  33:17:00:00     345    1.2      15    0.5      257.4   20.2  -19.6  145.8   -6.2    98.7
 09 FEB  2  33:18:00:00     346    1.9      13    0.8      257.4   20.0  -19.6  145.8   -6.2    98.2
 09 FEB  2  33:19:00:00     346    2.5      12    0.3      257.4   19.9  -19.6  145.8   -6.2    97.6
 09 FEB  2  33:20:00:00     346    2.8      11    0.1      257.4   19.7  -19.6  145.8   -6.2    97.1
 09 FEB  2  33:21:00:00     346    3.4      13    0.8      257.4   19.6  -19.6  145.8   -6.2    96.5
 09 FEB  2  33:22:00:00     346    3.1      12    0.9      257.4   19.4  -19.6  145.8   -6.2    96.0
 09 FEB  2  33:23:00:00     345    2.6      13    1.6      257.4   19.3  -19.6  145.8   -6.2    95.4
 09 FEB  3  34:00:00:00     346    2.8      14    1.2      257.4   19.2  -19.6  145.8   -6.2    94.9
 09 FEB  3  34:01:00:00     346    2.6      15    1.2      257.5   19.0  -19.6  145.8   -6.2    94.3
 09 FEB  3  34:02:00:00     348    1.8      16    0.7      257.5   18.9  -19.6  145.8   -6.2    93.8
 09 FEB  3  34:03:00:00      -1   -1.0      -1   99.0      257.5   18.7  -19.6  145.8   -6.2    93.2
 09 FEB  3  34:04:00:00      -1   -1.0      -1   99.0      257.5   18.6  -19.7  145.8   -6.2    92.7
 09 FEB  3  34:05:00:00      -1   -1.0      -1   99.0      257.5   18.4  -19.7  145.8   -6.2    92.1
 09 FEB  3  34:06:00:00      -1   -1.0      -1   99.0      257.5   18.3  -19.7  145.8   -6.2    91.6
 09 FEB  3  34:07:00:00      -1   -1.0      -1   99.0      257.5   18.1  -19.7  145.8   -6.2    91.0
 09 FEB  3  34:08:00:00      -1   -1.0      -1   99.0      257.5   18.0  -19.7  145.8   -6.2    90.5
 09 FEB  3  34:09:00:00      -1   -1.0      -1   99.0      257.5   17.8  -19.7  145.8   -6.2    89.9
 09 FEB  3  34:10:00:00      -1   -1.0      -1   99.0      257.5   17.7  -19.7  145.8   -6.3    89.4
 09 FEB  3  34:11:00:00      -1   -1.0      -1   99.0      257.5   17.5  -19.7  145.8   -6.3    88.8
 09 FEB  3  34:12:00:00     320    1.0      19    1.4      257.5   17.4  -19.7  145.8   -6.3    88.3
 09 FEB  3  34:13:00:00     303    1.5      18    0.1      257.5   17.2  -19.7  145.8   -6.3    87.7
 09 FEB  3  34:14:00:00     278    3.2      16   -0.1      257.5   17.1  -19.7  145.8   -6.3    87.2
 09 FEB  3  34:15:00:00     280    3.7      16    0.4      257.5   16.9  -19.7  145.8   -6.3    86.6
 09 FEB  3  34:16:00:00     278    3.6      16    0.5      257.6   16.8  -19.7  145.8   -6.3    86.1
 09 FEB  3  34:17:00:00      -1   -1.0      -1   99.0      257.6   16.6  -19.7  145.8   -6.3    85.5
 09 FEB  3  34:18:00:00      -1   -1.0      -1   99.0      257.6   16.5  -19.7  145.8   -6.3    85.0
 09 FEB  3  34:19:00:00      -1   -1.0      -1   99.0      257.6   16.3  -19.7  145.8   -6.3    84.4
 09 FEB  3  34:20:00:00     349    9.5      22    2.2      257.6   16.1  -19.7  145.8   -6.3    83.9
 09 FEB  3  34:21:00:00     338    7.6      23   -1.1      257.6   16.0  -19.7  145.8   -6.3    83.3
 09 FEB  3  34:22:00:00     336    9.2      21   -4.7      257.6   15.8  -19.7  145.8   -6.3    82.8
 09 FEB  3  34:23:00:00     350   12.8      20   -3.4      257.6   15.7  -19.7  145.8   -6.3    82.2
 09 FEB  4  35:00:00:00     354    5.8      21   -0.7      257.6   15.5  -19.7  145.8   -6.3    81.7
 09 FEB  4  35:01:00:00      -1   -1.0      -1   99.0      257.6   15.4  -19.7  145.8   -6.3    81.1
 09 FEB  4  35:02:00:00      -1   -1.0      -1   99.0      257.6   15.2  -19.7  145.8   -6.3    80.6
 09 FEB  4  35:03:00:00      -1   -1.0      -1   99.0      257.6   15.1  -19.8  145.8   -6.3    80.0
 09 FEB  4  35:04:00:00      -1   -1.0      -1   99.0      257.6   14.9  -19.8  145.8   -6.3    79.5
 09 FEB  4  35:05:00:00     350    5.2      21   -0.1      257.6   14.8  -19.8  145.8   -6.3    78.9
 09 FEB  4  35:06:00:00     350    7.3      20    0.3      257.6   14.6  -19.8  145.8   -6.3    78.4
 09 FEB  4  35:07:00:00     348    7.0      19    0.8      257.6   14.5  -19.8  145.8   -6.3    77.8
 09 FEB  4  35:08:00:00     347    5.8      20   -1.9      257.6   14.3  -19.8  145.8   -6.3    77.3
 09 FEB  4  35:09:00:00      -1   -1.0      -1   99.0      257.6   14.2  -19.8  145.8   -6.3    76.7
 09 FEB  4  35:10:00:00      -1   -1.0      -1   99.0      257.6   14.0  -19.8  145.8   -6.3    76.2
 09 FEB  4  35:11:00:00      -1   -1.0      -1   99.0      257.6   13.9  -19.8  145.8   -6.3    75.6
 09 FEB  4  35:12:00:00      -1   -1.0      -1   99.0      257.7   13.7  -19.8  145.8   -6.3    75.1
 09 FEB  4  35:13:00:00     344    6.5      15   -3.1      257.7   13.6  -19.8  145.8   -6.3    74.5
 09 FEB  4  35:14:00:00     345    7.1      13   -3.5      257.7   13.4  -19.8  145.8   -6.3    74.0
 09 FEB  4  35:15:00:00     345    5.9      10   -2.5      257.7   13.3  -19.8  145.8   -6.3    73.4
 09 FEB  4  35:16:00:00      -1   -1.0      -1   99.0      257.7   13.1  -19.8  145.8   -6.3    72.9
 09 FEB  4  35:17:00:00      -1   -1.0      -1   99.0      257.7   13.0  -19.8  145.8   -6.3    72.3
 09 FEB  4  35:18:00:00      -1   -1.0      -1   99.0      257.7   12.8  -19.8  145.8   -6.3    71.8
 09 FEB  4  35:19:00:00      -1   -1.0      -1   99.0      257.7   12.7  -19.8  145.8   -6.3    71.2
 09 FEB  4  35:20:00:00     357    6.5      23   -0.4      257.7   12.5  -19.8  145.8   -6.3    70.7
 09 FEB  4  35:21:00:00     365    5.2      23   -3.6      257.7   12.3  -19.8  145.8   -6.3    70.1
 09 FEB  4  35:22:00:00     353    4.3      21    0.2      257.7   12.2  -19.8  145.8   -6.3    69.6
 09 FEB  4  35:23:00:00     356    4.8      21    0.6      257.7   12.0  -19.8  145.8   -6.4    69.0
 09 FEB  5  36:00:00:00     353    4.3      21   -0.1      257.7   11.9  -19.8  145.8   -6.4    68.5
 09 FEB  5  36:01:00:00      -1   -1.0      -1   99.0      257.7   11.7  -19.8  145.8   -6.4    67.9
 09 FEB  5  36:02:00:00      -1   -1.0      -1   99.0      257.7   11.6  -19.8  145.8   -6.4    67.4
 09 FEB  5  36:03:00:00      -1   -1.0      -1   99.0      257.7   11.4  -19.8  145.8   -6.4    66.8
 09 FEB  5  36:04:00:00      -1   -1.0      -1   99.0      257.7   11.3  -19.8  145.9   -6.4    66.3
 09 FEB  5  36:05:00:00      -1   -1.0      -1   99.0      257.7   11.1  -19.9  145.9   -6.4    65.7
 09 FEB  5  36:06:00:00      -1   -1.0      -1   99.0      257.7   11.0  -19.9  145.9   -6.4    65.2
 09 FEB  5  36:07:00:00      -1   -1.0      -1   99.0      257.7   10.8  -19.9  145.9   -6.4    64.6
 09 FEB  5  36:08:00:00      -1   -1.0      -1   99.0      257.7   10.7  -19.9  145.9   -6.4    64.1
 09 FEB  5  36:09:00:00     346    2.9      15   -0.1      257.7   10.5  -19.9  145.9   -6.4    63.6
 09 FEB  5  36:10:00:00     347    2.8      17    0.0      257.7   10.3  -19.9  145.9   -6.4    63.0
 09 FEB  5  36:11:00:00     348    2.5      19    0.7      257.7   10.2  -19.9  145.9   -6.4    62.5
 09 FEB  5  36:12:00:00      -1   -1.0      -1   99.0      257.7   10.0  -19.9  145.9   -6.4    61.9
 09 FEB  5  36:13:00:00      -1   -1.0      -1   99.0      257.7    9.9  -19.9  145.9   -6.4    61.4
 09 FEB  5  36:14:00:00      -1   -1.0      -1   99.0      257.7    9.7  -19.9  145.9   -6.4    60.8
 09 FEB  5  36:15:00:00      -1   -1.0      -1   99.0      257.7    9.6  -19.9  145.9   -6.4    60.3
 09 FEB  5  36:16:00:00      -1   -1.0      -1   99.0      257.7    9.4  -19.9  145.9   -6.4    59.7
 09 FEB  5  36:17:00:00      -1   -1.0      -1   99.0      257.7    9.3  -19.9  145.9   -6.4    59.2
 09 FEB  5  36:18:00:00      -1   -1.0      -1   99.0      257.7    9.1  -19.9  145.9   -6.4    58.6
 09 FEB  5  36:19:00:00      -1   -1.0      -1   99.0      257.7    9.0  -19.9  145.9   -6.4    58.1
 09 FEB  5  36:20:00:00     344    7.0      12    4.9      257.7    8.8  -19.9  145.9   -6.4    57.5
 09 FEB  5  36:21:00:00     345    4.3      15    2.9      257.7    8.6  -19.9  145.9   -6.4    57.0
 09 FEB  5  36:22:00:00     341    3.7      18    4.3      257.8    8.5  -19.9  145.9   -6.4    56.4
 09 FEB  5  36:23:00:00     341    3.9      17    4.5      257.8    8.3  -19.9  145.9   -6.4    55.9
 09 FEB  6  37:00:00:00     336    2.9      18    4.2      257.8    8.2  -19.9  145.9   -6.4    55.3
 09 FEB  6  37:01:00:00     335    2.9      18    3.3      257.8    8.0  -19.9  145.9   -6.4    54.8
 09 FEB  6  37:02:00:00     334    2.7      19    3.4      257.8    7.9  -19.9  145.9   -6.4    54.2
 09 FEB  6  37:03:00:00     331    2.4      19    4.3      257.8    7.7  -19.9  145.9   -6.4    53.7
 09 FEB  6  37:04:00:00     328    2.2      19    3.5      257.8    7.6  -19.9  145.9   -6.4    53.1
 09 FEB  6  37:05:00:00     329    2.0      19    3.1      257.8    7.4  -19.9  145.9   -6.4    52.6
 09 FEB  6  37:06:00:00     329    1.9      19    2.7      257.8    7.2  -19.9  145.9   -6.4    52.0
 09 FEB  6  37:07:00:00     328    1.8      19    2.3      257.8    7.1  -19.9  145.9   -6.4    51.5
 09 FEB  6  37:08:00:00     329    1.7      19    2.4      257.8    6.9  -19.9  145.9   -6.4    50.9
 09 FEB  6  37:09:00:00     329    1.3      19    1.6      257.8    6.8  -19.9  145.9   -6.4    50.4
 09 FEB  6  37:10:00:00     318    1.3      19    1.0      257.8    6.6  -19.9  145.9   -6.4    49.8
 09 FEB  6  37:11:00:00     318    1.3      19   -0.1      257.8    6.5  -19.9  145.9   -6.4    49.3
 09 FEB  6  37:12:00:00     328    1.0      19   -0.7      257.8    6.3  -19.9  145.9   -6.4    48.7
 09 FEB  6  37:13:00:00     303    1.2      19    0.2      257.8    6.2  -19.9  145.9   -6.5    48.2
 09 FEB  6  37:14:00:00     318    0.6      20    0.4      257.8    6.0  -19.9  145.9   -6.5    47.6
 09 FEB  6  37:15:00:00     285    1.9      17    0.3      257.8    5.8  -20.0  145.9   -6.5    47.1
 09 FEB  6  37:16:00:00     281    2.4      16    0.3      257.8    5.7  -20.0  145.9   -6.5    46.5
 09 FEB  6  37:17:00:00     275    3.3      14    0.0      257.8    5.5  -20.0  145.9   -6.5    46.0
 09 FEB  6  37:18:00:00     275    3.2      15    0.0      257.8    5.4  -20.0  145.9   -6.5    45.4
 09 FEB  6  37:19:00:00     281    3.8      16    0.6      257.8    5.2  -20.0  145.9   -6.5    44.9
 09 FEB  6  37:20:00:00     335    2.6      16    0.2      257.8    5.1  -20.0  145.9   -6.5    44.3
 09 FEB  6  37:21:00:00     344    3.0      13   -0.2      257.8    4.9  -20.0  145.9   -6.5    43.8
 09 FEB  6  37:22:00:00     335    2.0      18   -1.3      257.8    4.8  -20.0  145.9   -6.5    43.2
 09 FEB  6  37:23:00:00     317    1.8      19    0.1      257.8    4.6  -20.0  145.9   -6.5    42.7
 09 FEB  7  38:00:00:00     321    1.4      19    0.4      257.8    4.4  -20.0  145.9   -6.5    42.1
 09 FEB  7  38:01:00:00     341    1.6      19   -0.8      257.8    4.3  -20.0  145.9   -6.5    41.6
 09 FEB  7  38:02:00:00     322    1.2      19    1.1      257.8    4.1  -20.0  145.9   -6.5    41.0
 09 FEB  7  38:03:00:00     315    1.2      19    0.8      257.8    4.0  -20.0  145.9   -6.5    40.5
 09 FEB  7  38:04:00:00     324    0.8      20    1.4      257.8    3.8  -20.0  145.9   -6.5    39.9
 09 FEB  7  38:05:00:00     319    0.9      20    0.9      257.8    3.7  -20.0  145.9   -6.5    39.4
 09 FEB  7  38:06:00:00     323    0.9      20    1.1      257.8    3.5  -20.0  145.9   -6.5    38.8
 09 FEB  7  38:07:00:00      -1   -1.0      -1   99.0      257.8    3.3  -20.0  145.9   -6.5    38.3
 09 FEB  7  38:08:00:00      -1   -1.0      -1   99.0      257.8    3.2  -20.0  145.9   -6.5    37.7
 09 FEB  7  38:09:00:00      -1   -1.0      -1   99.0      257.8    3.0  -20.0  145.9   -6.5    37.2
 09 FEB  7  38:10:00:00      -1   -1.0      -1   99.0      257.8    2.9  -20.0  145.9   -6.5    36.6
 09 FEB  7  38:11:00:00      -1   -1.0      -1   99.0      257.8    2.7  -20.0  145.9   -6.5    36.1
 09 FEB  7  38:12:00:00      -1   -1.0      -1   99.0      257.8    2.6  -20.0  145.9   -6.5    35.5
 09 FEB  7  38:13:00:00      -1   -1.0      -1   99.0      257.8    2.4  -20.0  145.9   -6.5    35.0
 09 FEB  7  38:14:00:00     319    1.7      19   -0.5      257.8    2.2  -20.0  145.9   -6.5    34.4
 09 FEB  7  38:15:00:00     316    1.5      19   -0.9      257.8    2.1  -20.0  145.9   -6.5    33.9
 09 FEB  7  38:16:00:00     316    1.5      19   -0.2      257.8    1.9  -20.0  145.9   -6.5    33.3
 09 FEB  7  38:17:00:00      -1   -1.0      -1   99.0      257.8    1.8  -20.0  145.9   -6.5    32.8
 09 FEB  7  38:18:00:00      -1   -1.0      -1   99.0      257.8    1.6  -20.0  145.9   -6.5    32.2
 09 FEB  7  38:19:00:00      -1   -1.0      -1   99.0      257.8    1.5  -20.0  145.9   -6.5    31.7
 09 FEB  7  38:20:00:00      -1   -1.0      -1   99.0      257.8    1.3  -20.0  145.9   -6.5    31.1
 09 FEB  7  38:21:00:00     285    2.0      17    0.7      257.8    1.1  -20.0  145.9   -6.5    30.6
 09 FEB  7  38:22:00:00     286    3.1      17    0.2      257.8    1.0  -20.0  145.9   -6.5    30.0
 09 FEB  7  38:23:00:00     280    3.8      16    0.5      257.8    0.8  -20.0  145.9   -6.5    29.5
 09 FEB  8  39:00:00:00     275    5.2      14    0.1      257.8    0.7  -20.0  145.9   -6.5    28.9
 09 FEB  8  39:01:00:00      -1   -1.0      -1   99.0      257.8    0.5  -20.0  145.9   -6.5    28.4
 09 FEB  8  39:02:00:00      -1   -1.0      -1   99.0      257.8    0.4  -20.0  145.9   -6.5    27.8
 09 FEB  8  39:03:00:00      -1   -1.0      -1   99.0      257.8    0.2  -20.0  145.9   -6.5    27.3
 09 FEB  8  39:04:00:00      -1   -1.0      -1   99.0      257.8    0.0  -20.0  145.9   -6.5    26.7
 09 FEB  8  39:05:00:00     323    1.7      20   -6.5      257.8   -0.1  -20.0  145.9   -6.6    26.2
 09 FEB  8  39:06:00:00     329    1.6      20   -6.7      257.8   -0.3  -20.0  145.9   -6.6    25.6
 09 FEB  8  39:07:00:00     324    1.1      21   -2.8      257.8   -0.4  -20.0  145.9   -6.6    25.1
 09 FEB  8  39:08:00:00     323    1.1      21    0.3      257.8   -0.6  -20.0  145.9   -6.6    24.5
 09 FEB  8  39:09:00:00      -1   -1.0      -1   99.0      257.8   -0.8  -20.0  145.9   -6.6    24.0
 09 FEB  8  39:10:00:00      -1   -1.0      -1   99.0      257.8   -0.9  -20.0  145.9   -6.6    23.4
 09 FEB  8  39:11:00:00      -1   -1.0      -1   99.0      257.8   -1.1  -20.0  145.9   -6.6    22.9
 09 FEB  8  39:12:00:00      -1   -1.0      -1   99.0      257.8   -1.2  -20.0  145.9   -6.6    22.3
 09 FEB  8  39:13:00:00      -1   -1.0      -1   99.0      257.8   -1.4  -20.0  145.9   -6.6    21.8
 09 FEB  8  39:14:00:00      -1   -1.0      -1   99.0      257.8   -1.5  -20.0  145.9   -6.6    21.3
 09 FEB  8  39:15:00:00      -1   -1.0      -1   99.0      257.8   -1.7  -20.0  145.9   -6.6    20.7
 09 FEB  8  39:16:00:00      -1   -1.0      -1   99.0      257.8   -1.9  -20.0  145.9   -6.6    20.2
 09 FEB  8  39:17:00:00      -1   -1.0      -1   99.0      257.8   -2.0  -20.0  145.9   -6.6    19.6
 09 FEB  8  39:18:00:00      -1   -1.0      -1   99.0      257.8   -2.2  -20.0  145.9   -6.6    19.1
 09 FEB  8  39:19:00:00      -1   -1.0      -1   99.0      257.8   -2.3  -20.0  145.9   -6.6    18.5
 09 FEB  8  39:20:00:00     292    2.1      18    0.9      257.8   -2.5  -20.0  145.9   -6.6    18.0
 09 FEB  8  39:21:00:00     295    2.3      18    1.2      257.8   -2.6  -20.0  145.9   -6.6    17.4
 09 FEB  8  39:22:00:00     306    1.5      18    1.6      257.7   -2.8  -20.0  145.9   -6.6    16.9
 09 FEB  8  39:23:00:00     326    0.9      19    1.5      257.7   -3.0  -20.0  145.9   -6.6    16.3
 09 FEB  9  40:00:00:00     316    1.0      18    1.3      257.7   -3.1  -20.0  145.9   -6.6    15.8
 09 FEB  9  40:01:00:00      -1   -1.0      -1   99.0      257.7   -3.3  -20.0  145.9   -6.6    15.2
 09 FEB  9  40:02:00:00      -1   -1.0      -1   99.0      257.7   -3.4  -20.0  145.9   -6.6    14.7
 09 FEB  9  40:03:00:00      -1   -1.0      -1   99.0      257.7   -3.6  -20.0  145.9   -6.6    14.1
 09 FEB  9  40:04:00:00      -1   -1.0      -1   99.0      257.7   -3.7  -20.0  145.9   -6.6    13.6
 09 FEB  9  40:05:00:00      -1   -1.0      -1   99.0      257.7   -3.9  -20.0  145.9   -6.6    13.0
 09 FEB  9  40:06:00:00     337    0.7      20   -1.7      257.7   -4.1  -20.0  145.9   -6.6    12.5
 09 FEB  9  40:07:00:00     341    1.2      20   -1.3      257.7   -4.2  -20.0  146.0   -6.6    11.9
 09 FEB  9  40:08:00:00      -1   -1.0      -1   99.0      257.7   -4.4  -20.0  146.0   -6.6    11.4
 09 FEB  9  40:09:00:00      -1   -1.0      -1   99.0      257.7   -4.5  -20.0  146.0   -6.6    10.8
 09 FEB  9  40:10:00:00      -1   -1.0      -1   99.0      257.7   -4.7  -20.0  146.0   -6.6    10.3
 09 FEB  9  40:11:00:00      -1   -1.0      -1   99.0      257.7   -4.9  -20.0  146.0   -6.6     9.7
 09 FEB  9  40:12:00:00      -1   -1.0      -1   99.0      257.7   -5.0  -20.0  146.0   -6.6     9.2
 09 FEB  9  40:13:00:00     298    1.4      19    0.7      257.7   -5.2  -20.0  146.0   -6.6     8.6
 09 FEB  9  40:14:00:00     298    1.5      19    0.7      257.7   -5.3  -20.0  146.0   -6.6     8.1
 09 FEB  9  40:15:00:00     289    1.8      18    0.8      257.7   -5.5  -20.0  146.0   -6.6     7.5
 09 FEB  9  40:16:00:00     287    1.8      17    0.8      257.7   -5.6  -20.0  146.0   -6.6     7.0
 09 FEB  9  40:17:00:00      -1   -1.0      -1   99.0      257.7   -5.8  -20.0  146.0   -6.6     6.4
 09 FEB  9  40:18:00:00      -1   -1.0      -1   99.0      257.7   -6.0  -20.0  146.0   -6.6     5.9
 09 FEB  9  40:19:00:00      -1   -1.0      -1   99.0      257.7   -6.1  -20.0  146.0   -6.6     5.3
 09 FEB  9  40:20:00:00     277    3.3      16    1.1      257.7   -6.3  -20.0  146.0   -6.6     4.8
 09 FEB  9  40:21:00:00     276    4.3      15    0.8      257.7   -6.4  -20.0  146.0   -6.6     4.2
 09 FEB  9  40:22:00:00     275    4.9      13    0.7      257.7   -6.6  -20.0  146.0   -6.6     3.7
 09 FEB  9  40:23:00:00     271    6.9       7   -0.7      257.7   -6.7  -20.0  146.0   -6.6     3.1
 09 FEB 10  41:00:00:00      -1   -1.0      -1   99.0      257.7   -6.9  -20.0  146.0   -6.6     2.6
 09 FEB 10  41:01:00:00      -1   -1.0      -1   99.0      257.7   -7.1  -20.0  146.0   -6.7     2.0
 09 FEB 10  41:02:00:00      -1   -1.0      -1   99.0      257.7   -7.2  -20.0  146.0   -6.7     1.5
 09 FEB 10  41:03:00:00      -1   -1.0      -1   99.0      257.7   -7.4  -20.0  146.0   -6.7     0.9
 09 FEB 10  41:04:00:00      -1   -1.0      -1   99.0      257.7   -7.5  -20.0  146.0   -6.7     0.4
 09 FEB 10  41:05:00:00     272    5.2      10   -2.7      257.7   -7.7  -20.0  146.0   -6.7   359.8
 09 FEB 10  41:06:00:00     271    5.2       7    0.9      257.7   -7.8  -20.0  146.0   -6.7   359.3